sensor_id;sensor_type;location;lat;lon;timestamp;P1;durP1;ratioP1;P2;durP2;ratioP2
41323;SDS011;27073;51.128;4.220;2023-02-28T00:00:20;7.03;;;4.60;;
41323;SDS011;27073;51.128;4.220;2023-02-28T00:02:46;9.80;;;5.15;;
41323;SDS011;27073;51.128;4.220;2023-02-28T00:05:13;7.82;;;4.63;;
41323;SDS011;27073;51.128;4.220;2023-02-28T00:07:42;8.93;;;5.53;;
41323;SDS011;27073;51.128;4.220;2023-02-28T00:10:10;7.32;;;4.20;;
41323;SDS011;27073;51.128;4.220;2023-02-28T00:12:37;6.65;;;4.80;;
41323;SDS011;27073;51.128;4.220;2023-02-28T00:15:09;8.80;;;5.15;;
41323;SDS011;27073;51.128;4.220;2023-02-28T00:17:35;9.40;;;5.00;;
41323;SDS011;27073;51.128;4.220;2023-02-28T00:20:02;10.43;;;4.72;;
41323;SDS011;27073;51.128;4.220;2023-02-28T00:22:29;7.60;;;4.38;;
41323;SDS011;27073;51.128;4.220;2023-02-28T00:24:55;8.20;;;4.93;;
41323;SDS011;27073;51.128;4.220;2023-02-28T00:27:21;13.88;;;5.03;;
41323;SDS011;27073;51.128;4.220;2023-02-28T00:29:47;10.80;;;6.20;;
41323;SDS011;27073;51.128;4.220;2023-02-28T00:32:13;13.38;;;6.45;;
41323;SDS011;27073;51.128;4.220;2023-02-28T00:34:39;15.68;;;7.00;;
41323;SDS011;27073;51.128;4.220;2023-02-28T00:37:05;6.75;;;5.03;;
41323;SDS011;27073;51.128;4.220;2023-02-28T00:39:35;6.97;;;4.80;;
41323;SDS011;27073;51.128;4.220;2023-02-28T00:42:04;7.65;;;4.65;;
41323;SDS011;27073;51.128;4.220;2023-02-28T00:44:30;9.48;;;4.63;;
41323;SDS011;27073;51.128;4.220;2023-02-28T00:46:57;9.02;;;5.05;;
41323;SDS011;27073;51.128;4.220;2023-02-28T00:49:24;11.70;;;5.57;;
41323;SDS011;27073;51.128;4.220;2023-02-28T00:51:50;8.35;;;5.40;;
41323;SDS011;27073;51.128;4.220;2023-02-28T00:54:18;6.97;;;5.07;;
41323;SDS011;27073;51.128;4.220;2023-02-28T00:56:46;11.13;;;4.97;;
41323;SDS011;27073;51.128;4.220;2023-02-28T00:59:15;9.13;;;5.88;;
41323;SDS011;27073;51.128;4.220;2023-02-28T01:01:42;11.00;;;5.15;;
41323;SDS011;27073;51.128;4.220;2023-02-28T01:04:08;9.15;;;5.18;;
41323;SDS011;27073;51.128;4.220;2023-02-28T01:06:34;8.10;;;5.28;;
41323;SDS011;27073;51.128;4.220;2023-02-28T01:09:01;8.60;;;5.70;;
41323;SDS011;27073;51.128;4.220;2023-02-28T01:11:28;7.72;;;5.60;;
41323;SDS011;27073;51.128;4.220;2023-02-28T01:13:54;8.23;;;4.95;;
41323;SDS011;27073;51.128;4.220;2023-02-28T01:16:19;6.90;;;4.80;;
41323;SDS011;27073;51.128;4.220;2023-02-28T01:18:45;7.80;;;5.20;;
41323;SDS011;27073;51.128;4.220;2023-02-28T01:21:12;9.50;;;5.38;;
41323;SDS011;27073;51.128;4.220;2023-02-28T01:23:40;9.90;;;4.78;;
41323;SDS011;27073;51.128;4.220;2023-02-28T01:26:08;7.50;;;5.30;;
41323;SDS011;27073;51.128;4.220;2023-02-28T01:28:38;10.95;;;5.43;;
41323;SDS011;27073;51.128;4.220;2023-02-28T01:31:05;7.80;;;4.88;;
41323;SDS011;27073;51.128;4.220;2023-02-28T01:33:32;7.80;;;5.70;;
41323;SDS011;27073;51.128;4.220;2023-02-28T01:35:59;8.90;;;5.68;;
41323;SDS011;27073;51.128;4.220;2023-02-28T01:38:29;6.90;;;5.28;;
41323;SDS011;27073;51.128;4.220;2023-02-28T01:40:55;6.93;;;5.10;;
41323;SDS011;27073;51.128;4.220;2023-02-28T01:43:28;6.05;;;5.25;;
41323;SDS011;27073;51.128;4.220;2023-02-28T01:46:11;8.30;;;6.07;;
41323;SDS011;27073;51.128;4.220;2023-02-28T01:48:40;6.22;;;5.00;;
41323;SDS011;27073;51.128;4.220;2023-02-28T01:51:50;7.57;;;5.75;;
41323;SDS011;27073;51.128;4.220;2023-02-28T01:54:11;10.07;;;5.60;;
41323;SDS011;27073;51.128;4.220;2023-02-28T01:56:46;7.85;;;4.93;;
41323;SDS011;27073;51.128;4.220;2023-02-28T01:59:22;11.70;;;5.40;;
41323;SDS011;27073;51.128;4.220;2023-02-28T02:01:52;13.27;;;5.28;;
41323;SDS011;27073;51.128;4.220;2023-02-28T02:04:18;10.80;;;5.90;;
41323;SDS011;27073;51.128;4.220;2023-02-28T02:06:46;8.70;;;5.45;;
41323;SDS011;27073;51.128;4.220;2023-02-28T02:09:13;10.95;;;5.68;;
41323;SDS011;27073;51.128;4.220;2023-02-28T02:11:39;7.00;;;4.53;;
41323;SDS011;27073;51.128;4.220;2023-02-28T02:25:10;9.60;;;6.35;;
41323;SDS011;27073;51.128;4.220;2023-02-28T02:30:32;11.25;;;6.68;;
41323;SDS011;27073;51.128;4.220;2023-02-28T02:41:55;8.63;;;5.53;;
41323;SDS011;27073;51.128;4.220;2023-02-28T02:46:59;10.48;;;6.32;;
41323;SDS011;27073;51.128;4.220;2023-02-28T02:49:33;8.93;;;6.22;;
41323;SDS011;27073;51.128;4.220;2023-02-28T02:52:06;8.10;;;5.85;;
41323;SDS011;27073;51.128;4.220;2023-02-28T02:54:40;9.18;;;5.88;;
41323;SDS011;27073;51.128;4.220;2023-02-28T02:57:20;11.02;;;6.03;;
41323;SDS011;27073;51.128;4.220;2023-02-28T02:59:50;9.55;;;6.75;;
41323;SDS011;27073;51.128;4.220;2023-02-28T03:02:20;10.43;;;7.13;;
41323;SDS011;27073;51.128;4.220;2023-02-28T03:04:58;9.30;;;6.55;;
41323;SDS011;27073;51.128;4.220;2023-02-28T03:07:27;7.77;;;6.37;;
41323;SDS011;27073;51.128;4.220;2023-02-28T03:09:53;10.52;;;6.60;;
41323;SDS011;27073;51.128;4.220;2023-02-28T03:12:21;11.82;;;6.43;;
41323;SDS011;27073;51.128;4.220;2023-02-28T03:15:00;10.38;;;6.10;;
41323;SDS011;27073;51.128;4.220;2023-02-28T03:23:16;10.68;;;6.40;;
41323;SDS011;27073;51.128;4.220;2023-02-28T03:25:52;11.52;;;5.90;;
41323;SDS011;27073;51.128;4.220;2023-02-28T03:31:30;8.20;;;6.05;;
41323;SDS011;27073;51.128;4.220;2023-02-28T03:36:32;8.07;;;5.25;;
41323;SDS011;27073;51.128;4.220;2023-02-28T03:39:09;7.95;;;5.50;;
41323;SDS011;27073;51.128;4.220;2023-02-28T03:41:43;12.02;;;5.97;;
41323;SDS011;27073;51.128;4.220;2023-02-28T03:47:12;13.70;;;10.05;;
41323;SDS011;27073;51.128;4.220;2023-02-28T03:49:53;13.00;;;10.07;;
41323;SDS011;27073;51.128;4.220;2023-02-28T03:52:22;10.15;;;8.40;;
41323;SDS011;27073;51.128;4.220;2023-02-28T03:54:54;9.40;;;7.35;;
41323;SDS011;27073;51.128;4.220;2023-02-28T04:00:11;8.27;;;7.45;;
41323;SDS011;27073;51.128;4.220;2023-02-28T04:02:41;9.60;;;6.90;;
41323;SDS011;27073;51.128;4.220;2023-02-28T04:05:07;10.70;;;6.80;;
41323;SDS011;27073;51.128;4.220;2023-02-28T04:07:33;7.32;;;6.15;;
41323;SDS011;27073;51.128;4.220;2023-02-28T04:09:59;8.13;;;6.43;;
41323;SDS011;27073;51.128;4.220;2023-02-28T04:12:25;10.98;;;6.07;;
41323;SDS011;27073;51.128;4.220;2023-02-28T04:14:50;8.38;;;5.82;;
41323;SDS011;27073;51.128;4.220;2023-02-28T04:17:16;6.35;;;5.20;;
41323;SDS011;27073;51.128;4.220;2023-02-28T04:19:42;6.90;;;5.68;;
41323;SDS011;27073;51.128;4.220;2023-02-28T04:22:09;6.95;;;5.45;;
41323;SDS011;27073;51.128;4.220;2023-02-28T04:24:34;12.00;;;6.13;;
41323;SDS011;27073;51.128;4.220;2023-02-28T04:27:01;8.45;;;5.60;;
41323;SDS011;27073;51.128;4.220;2023-02-28T04:29:31;8.73;;;5.97;;
41323;SDS011;27073;51.128;4.220;2023-02-28T04:31:57;11.13;;;6.30;;
41323;SDS011;27073;51.128;4.220;2023-02-28T04:34:27;7.22;;;5.43;;
41323;SDS011;27073;51.128;4.220;2023-02-28T04:36:54;7.82;;;5.65;;
41323;SDS011;27073;51.128;4.220;2023-02-28T04:39:21;9.35;;;5.45;;
41323;SDS011;27073;51.128;4.220;2023-02-28T04:41:48;8.88;;;6.05;;
41323;SDS011;27073;51.128;4.220;2023-02-28T04:44:14;8.23;;;6.03;;
41323;SDS011;27073;51.128;4.220;2023-02-28T04:46:40;9.10;;;5.90;;
41323;SDS011;27073;51.128;4.220;2023-02-28T04:49:08;8.95;;;5.70;;
41323;SDS011;27073;51.128;4.220;2023-02-28T04:51:35;10.02;;;6.15;;
41323;SDS011;27073;51.128;4.220;2023-02-28T04:54:01;9.60;;;5.50;;
41323;SDS011;27073;51.128;4.220;2023-02-28T04:56:27;10.38;;;6.15;;
41323;SDS011;27073;51.128;4.220;2023-02-28T04:58:52;8.02;;;5.32;;
41323;SDS011;27073;51.128;4.220;2023-02-28T05:01:19;6.80;;;5.43;;
41323;SDS011;27073;51.128;4.220;2023-02-28T05:03:47;8.77;;;5.20;;
41323;SDS011;27073;51.128;4.220;2023-02-28T05:06:13;8.32;;;5.10;;
41323;SDS011;27073;51.128;4.220;2023-02-28T05:08:40;7.75;;;5.60;;
41323;SDS011;27073;51.128;4.220;2023-02-28T05:11:07;9.10;;;5.90;;
41323;SDS011;27073;51.128;4.220;2023-02-28T05:13:38;8.95;;;5.68;;
41323;SDS011;27073;51.128;4.220;2023-02-28T05:16:04;8.70;;;5.75;;
41323;SDS011;27073;51.128;4.220;2023-02-28T05:18:31;8.90;;;6.65;;
41323;SDS011;27073;51.128;4.220;2023-02-28T05:20:57;8.43;;;5.68;;
41323;SDS011;27073;51.128;4.220;2023-02-28T05:23:22;8.65;;;6.07;;
41323;SDS011;27073;51.128;4.220;2023-02-28T05:25:48;7.78;;;5.18;;
41323;SDS011;27073;51.128;4.220;2023-02-28T05:28:14;10.25;;;6.13;;
41323;SDS011;27073;51.128;4.220;2023-02-28T05:30:40;8.13;;;6.00;;
41323;SDS011;27073;51.128;4.220;2023-02-28T05:33:05;8.75;;;5.38;;
41323;SDS011;27073;51.128;4.220;2023-02-28T05:35:31;8.98;;;5.85;;
41323;SDS011;27073;51.128;4.220;2023-02-28T05:37:57;7.45;;;5.75;;
41323;SDS011;27073;51.128;4.220;2023-02-28T05:40:22;8.60;;;6.10;;
41323;SDS011;27073;51.128;4.220;2023-02-28T05:42:49;9.57;;;5.85;;
41323;SDS011;27073;51.128;4.220;2023-02-28T05:45:16;9.60;;;5.97;;
41323;SDS011;27073;51.128;4.220;2023-02-28T05:47:42;10.23;;;5.93;;
41323;SDS011;27073;51.128;4.220;2023-02-28T05:50:08;10.13;;;5.32;;
41323;SDS011;27073;51.128;4.220;2023-02-28T05:52:35;7.28;;;5.25;;
41323;SDS011;27073;51.128;4.220;2023-02-28T05:55:01;9.77;;;5.28;;
41323;SDS011;27073;51.128;4.220;2023-02-28T05:57:27;12.15;;;6.53;;
41323;SDS011;27073;51.128;4.220;2023-02-28T05:59:53;9.05;;;5.95;;
41323;SDS011;27073;51.128;4.220;2023-02-28T06:02:19;10.23;;;5.70;;
41323;SDS011;27073;51.128;4.220;2023-02-28T06:04:45;8.27;;;5.72;;
41323;SDS011;27073;51.128;4.220;2023-02-28T06:07:11;11.00;;;5.90;;
41323;SDS011;27073;51.128;4.220;2023-02-28T06:09:37;11.23;;;5.45;;
41323;SDS011;27073;51.128;4.220;2023-02-28T06:12:04;10.32;;;6.47;;
41323;SDS011;27073;51.128;4.220;2023-02-28T06:14:31;12.20;;;5.60;;
41323;SDS011;27073;51.128;4.220;2023-02-28T06:16:58;10.27;;;5.60;;
41323;SDS011;27073;51.128;4.220;2023-02-28T06:19:24;11.70;;;6.28;;
41323;SDS011;27073;51.128;4.220;2023-02-28T06:21:51;9.05;;;6.15;;
41323;SDS011;27073;51.128;4.220;2023-02-28T06:24:18;11.20;;;5.70;;
41323;SDS011;27073;51.128;4.220;2023-02-28T06:26:47;8.68;;;5.90;;
41323;SDS011;27073;51.128;4.220;2023-02-28T06:29:13;10.65;;;5.35;;
41323;SDS011;27073;51.128;4.220;2023-02-28T06:31:46;8.93;;;5.05;;
41323;SDS011;27073;51.128;4.220;2023-02-28T06:34:13;7.00;;;5.53;;
41323;SDS011;27073;51.128;4.220;2023-02-28T06:36:39;8.23;;;5.25;;
41323;SDS011;27073;51.128;4.220;2023-02-28T06:39:06;9.00;;;4.90;;
41323;SDS011;27073;51.128;4.220;2023-02-28T06:41:33;8.27;;;4.80;;
41323;SDS011;27073;51.128;4.220;2023-02-28T06:44:03;11.18;;;4.97;;
41323;SDS011;27073;51.128;4.220;2023-02-28T06:46:40;7.80;;;5.13;;
41323;SDS011;27073;51.128;4.220;2023-02-28T06:49:06;10.07;;;5.25;;
41323;SDS011;27073;51.128;4.220;2023-02-28T06:51:34;10.57;;;5.63;;
41323;SDS011;27073;51.128;4.220;2023-02-28T06:54:01;11.32;;;5.38;;
41323;SDS011;27073;51.128;4.220;2023-02-28T06:56:27;8.50;;;5.78;;
41323;SDS011;27073;51.128;4.220;2023-02-28T06:58:53;10.40;;;5.88;;
41323;SDS011;27073;51.128;4.220;2023-02-28T07:01:19;11.18;;;5.70;;
41323;SDS011;27073;51.128;4.220;2023-02-28T07:03:47;9.60;;;6.13;;
41323;SDS011;27073;51.128;4.220;2023-02-28T07:06:17;10.52;;;5.32;;
41323;SDS011;27073;51.128;4.220;2023-02-28T07:08:44;10.07;;;6.30;;
41323;SDS011;27073;51.128;4.220;2023-02-28T07:11:10;11.88;;;6.30;;
41323;SDS011;27073;51.128;4.220;2023-02-28T07:13:36;11.43;;;5.72;;
41323;SDS011;27073;51.128;4.220;2023-02-28T07:16:03;10.35;;;6.53;;
41323;SDS011;27073;51.128;4.220;2023-02-28T07:18:31;18.55;;;6.75;;
41323;SDS011;27073;51.128;4.220;2023-02-28T07:20:57;9.07;;;6.03;;
41323;SDS011;27073;51.128;4.220;2023-02-28T07:23:23;11.93;;;7.00;;
41323;SDS011;27073;51.128;4.220;2023-02-28T07:25:49;10.77;;;6.38;;
41323;SDS011;27073;51.128;4.220;2023-02-28T07:28:15;12.85;;;6.25;;
41323;SDS011;27073;51.128;4.220;2023-02-28T07:30:41;11.63;;;5.95;;
41323;SDS011;27073;51.128;4.220;2023-02-28T07:33:07;10.90;;;5.93;;
41323;SDS011;27073;51.128;4.220;2023-02-28T07:35:39;11.10;;;7.05;;
41323;SDS011;27073;51.128;4.220;2023-02-28T07:38:05;7.60;;;5.57;;
41323;SDS011;27073;51.128;4.220;2023-02-28T07:40:33;10.27;;;5.97;;
41323;SDS011;27073;51.128;4.220;2023-02-28T07:43:00;10.85;;;5.78;;
41323;SDS011;27073;51.128;4.220;2023-02-28T07:45:27;10.98;;;5.90;;
41323;SDS011;27073;51.128;4.220;2023-02-28T07:47:59;10.95;;;6.22;;
41323;SDS011;27073;51.128;4.220;2023-02-28T07:50:26;12.40;;;6.18;;
41323;SDS011;27073;51.128;4.220;2023-02-28T07:52:56;11.60;;;6.28;;
41323;SDS011;27073;51.128;4.220;2023-02-28T07:55:25;11.70;;;5.97;;
41323;SDS011;27073;51.128;4.220;2023-02-28T07:57:51;10.82;;;6.50;;
41323;SDS011;27073;51.128;4.220;2023-02-28T08:00:16;8.00;;;5.40;;
41323;SDS011;27073;51.128;4.220;2023-02-28T08:02:43;8.65;;;5.65;;
41323;SDS011;27073;51.128;4.220;2023-02-28T08:05:09;9.07;;;5.40;;
41323;SDS011;27073;51.128;4.220;2023-02-28T08:07:35;12.32;;;5.75;;
41323;SDS011;27073;51.128;4.220;2023-02-28T08:10:01;10.27;;;5.75;;
41323;SDS011;27073;51.128;4.220;2023-02-28T08:12:26;10.50;;;5.63;;
41323;SDS011;27073;51.128;4.220;2023-02-28T08:14:52;8.57;;;6.05;;
41323;SDS011;27073;51.128;4.220;2023-02-28T08:17:18;11.02;;;5.38;;
41323;SDS011;27073;51.128;4.220;2023-02-28T08:19:47;13.43;;;5.72;;
41323;SDS011;27073;51.128;4.220;2023-02-28T08:22:12;11.90;;;6.10;;
41323;SDS011;27073;51.128;4.220;2023-02-28T08:24:39;13.55;;;5.93;;
41323;SDS011;27073;51.128;4.220;2023-02-28T08:27:07;9.38;;;5.35;;
41323;SDS011;27073;51.128;4.220;2023-02-28T08:29:33;10.68;;;5.20;;
41323;SDS011;27073;51.128;4.220;2023-02-28T08:31:59;8.55;;;4.78;;
41323;SDS011;27073;51.128;4.220;2023-02-28T08:34:24;6.70;;;4.88;;
41323;SDS011;27073;51.128;4.220;2023-02-28T08:36:50;7.80;;;3.97;;
41323;SDS011;27073;51.128;4.220;2023-02-28T08:39:16;6.78;;;3.60;;
41323;SDS011;27073;51.128;4.220;2023-02-28T08:41:42;5.35;;;3.03;;
41323;SDS011;27073;51.128;4.220;2023-02-28T08:44:09;4.50;;;2.72;;
41323;SDS011;27073;51.128;4.220;2023-02-28T08:46:34;8.65;;;2.90;;
41323;SDS011;27073;51.128;4.220;2023-02-28T08:49:00;5.47;;;2.28;;
41323;SDS011;27073;51.128;4.220;2023-02-28T08:51:27;4.22;;;2.00;;
41323;SDS011;27073;51.128;4.220;2023-02-28T08:53:58;3.15;;;1.80;;
41323;SDS011;27073;51.128;4.220;2023-02-28T08:56:25;5.25;;;2.30;;
41323;SDS011;27073;51.128;4.220;2023-02-28T08:58:53;4.75;;;3.17;;
41323;SDS011;27073;51.128;4.220;2023-02-28T09:01:24;4.53;;;3.17;;
41323;SDS011;27073;51.128;4.220;2023-02-28T09:03:54;3.58;;;2.13;;
41323;SDS011;27073;51.128;4.220;2023-02-28T09:06:22;5.72;;;2.20;;
41323;SDS011;27073;51.128;4.220;2023-02-28T09:08:50;3.40;;;1.83;;
41323;SDS011;27073;51.128;4.220;2023-02-28T09:11:16;3.50;;;1.83;;
41323;SDS011;27073;51.128;4.220;2023-02-28T09:13:44;5.18;;;2.00;;
41323;SDS011;27073;51.128;4.220;2023-02-28T09:16:11;5.85;;;2.13;;
41323;SDS011;27073;51.128;4.220;2023-02-28T09:18:38;3.95;;;1.80;;
41323;SDS011;27073;51.128;4.220;2023-02-28T09:21:05;4.13;;;2.33;;
41323;SDS011;27073;51.128;4.220;2023-02-28T09:23:32;2.50;;;1.80;;
41323;SDS011;27073;51.128;4.220;2023-02-28T09:25:58;3.40;;;1.98;;
41323;SDS011;27073;51.128;4.220;2023-02-28T09:28:24;7.00;;;2.22;;
41323;SDS011;27073;51.128;4.220;2023-02-28T09:30:50;3.33;;;1.60;;
41323;SDS011;27073;51.128;4.220;2023-02-28T09:33:18;3.33;;;1.92;;
41323;SDS011;27073;51.128;4.220;2023-02-28T09:35:47;4.78;;;1.85;;
41323;SDS011;27073;51.128;4.220;2023-02-28T09:38:14;7.18;;;2.55;;
41323;SDS011;27073;51.128;4.220;2023-02-28T09:40:50;3.15;;;2.08;;
41323;SDS011;27073;51.128;4.220;2023-02-28T09:43:20;3.50;;;2.00;;
41323;SDS011;27073;51.128;4.220;2023-02-28T09:45:53;5.93;;;1.90;;
41323;SDS011;27073;51.128;4.220;2023-02-28T09:48:26;5.10;;;2.00;;
41323;SDS011;27073;51.128;4.220;2023-02-28T09:51:01;5.25;;;2.60;;
41323;SDS011;27073;51.128;4.220;2023-02-28T09:53:33;5.97;;;2.50;;
41323;SDS011;27073;51.128;4.220;2023-02-28T09:56:19;4.32;;;2.47;;
41323;SDS011;27073;51.128;4.220;2023-02-28T09:58:55;4.90;;;1.90;;
41323;SDS011;27073;51.128;4.220;2023-02-28T10:07:02;4.22;;;2.25;;
41323;SDS011;27073;51.128;4.220;2023-02-28T10:09:42;9.07;;;3.17;;
41323;SDS011;27073;51.128;4.220;2023-02-28T10:12:12;5.87;;;3.20;;
41323;SDS011;27073;51.128;4.220;2023-02-28T10:14:41;3.67;;;1.98;;
41323;SDS011;27073;51.128;4.220;2023-02-28T10:17:19;4.50;;;1.85;;
41323;SDS011;27073;51.128;4.220;2023-02-28T10:25:28;6.13;;;2.65;;
41323;SDS011;27073;51.128;4.220;2023-02-28T10:27:59;8.27;;;2.35;;
41323;SDS011;27073;51.128;4.220;2023-02-28T10:33:03;5.43;;;3.30;;
41323;SDS011;27073;51.128;4.220;2023-02-28T10:35:28;6.07;;;3.22;;
41323;SDS011;27073;51.128;4.220;2023-02-28T10:37:55;2.90;;;1.70;;
41323;SDS011;27073;51.128;4.220;2023-02-28T10:42:55;3.47;;;2.00;;
41323;SDS011;27073;51.128;4.220;2023-02-28T10:45:26;6.53;;;1.80;;
41323;SDS011;27073;51.128;4.220;2023-02-28T10:50:44;3.95;;;2.47;;
41323;SDS011;27073;51.128;4.220;2023-02-28T10:58:30;7.18;;;5.35;;
41323;SDS011;27073;51.128;4.220;2023-02-28T11:01:10;3.78;;;2.90;;
41323;SDS011;27073;51.128;4.220;2023-02-28T11:03:44;4.93;;;2.42;;
41323;SDS011;27073;51.128;4.220;2023-02-28T11:06:21;5.25;;;1.92;;
41323;SDS011;27073;51.128;4.220;2023-02-28T11:08:53;3.40;;;1.88;;
41323;SDS011;27073;51.128;4.220;2023-02-28T11:11:26;5.47;;;1.50;;
41323;SDS011;27073;51.128;4.220;2023-02-28T11:13:58;4.70;;;3.22;;
41323;SDS011;27073;51.128;4.220;2023-02-28T11:16:33;6.07;;;2.90;;
41323;SDS011;27073;51.128;4.220;2023-02-28T11:19:01;6.15;;;3.67;;
41323;SDS011;27073;51.128;4.220;2023-02-28T11:21:31;3.30;;;2.00;;
41323;SDS011;27073;51.128;4.220;2023-02-28T11:26:48;6.90;;;3.13;;
41323;SDS011;27073;51.128;4.220;2023-02-28T11:29:21;4.68;;;1.92;;
41323;SDS011;27073;51.128;4.220;2023-02-28T11:34:38;6.88;;;3.40;;
41323;SDS011;27073;51.128;4.220;2023-02-28T11:37:05;11.30;;;5.82;;
41323;SDS011;27073;51.128;4.220;2023-02-28T11:39:35;7.97;;;4.13;;
41323;SDS011;27073;51.128;4.220;2023-02-28T11:47:45;10.48;;;6.30;;
41323;SDS011;27073;51.128;4.220;2023-02-28T11:56:06;8.65;;;3.70;;
41323;SDS011;27073;51.128;4.220;2023-02-28T12:01:51;7.40;;;4.20;;
41323;SDS011;27073;51.128;4.220;2023-02-28T12:05:01;5.07;;;2.30;;
41323;SDS011;27073;51.128;4.220;2023-02-28T12:15:52;3.83;;;2.05;;
41323;SDS011;27073;51.128;4.220;2023-02-28T12:19:05;5.60;;;1.55;;
41323;SDS011;27073;51.128;4.220;2023-02-28T12:29:22;2.45;;;1.42;;
41323;SDS011;27073;51.128;4.220;2023-02-28T12:31:54;3.63;;;2.13;;
41323;SDS011;27073;51.128;4.220;2023-02-28T12:34:28;3.22;;;1.50;;
41323;SDS011;27073;51.128;4.220;2023-02-28T12:36:58;4.80;;;1.67;;
41323;SDS011;27073;51.128;4.220;2023-02-28T12:39:36;3.13;;;1.35;;
41323;SDS011;27073;51.128;4.220;2023-02-28T12:47:26;2.58;;;1.30;;
41323;SDS011;27073;51.128;4.220;2023-02-28T12:49:53;2.05;;;1.27;;
41323;SDS011;27073;51.128;4.220;2023-02-28T12:52:46;2.30;;;1.60;;
41323;SDS011;27073;51.128;4.220;2023-02-28T12:55:29;5.30;;;1.70;;
41323;SDS011;27073;51.128;4.220;2023-02-28T12:58:05;3.50;;;1.50;;
41323;SDS011;27073;51.128;4.220;2023-02-28T13:00:48;3.95;;;1.60;;
41323;SDS011;27073;51.128;4.220;2023-02-28T13:06:05;3.25;;;1.27;;
41323;SDS011;27073;51.128;4.220;2023-02-28T13:11:33;2.58;;;1.20;;
41323;SDS011;27073;51.128;4.220;2023-02-28T13:14:06;6.20;;;1.90;;
41323;SDS011;27073;51.128;4.220;2023-02-28T13:17:28;4.05;;;1.80;;
41323;SDS011;27073;51.128;4.220;2023-02-28T13:24:51;3.33;;;1.48;;
41323;SDS011;27073;51.128;4.220;2023-02-28T13:27:23;18.27;;;10.23;;
41323;SDS011;27073;51.128;4.220;2023-02-28T13:29:50;3.03;;;1.92;;
41323;SDS011;27073;51.128;4.220;2023-02-28T13:39:57;6.18;;;1.90;;
41323;SDS011;27073;51.128;4.220;2023-02-28T13:56:01;6.35;;;1.90;;
41323;SDS011;27073;51.128;4.220;2023-02-28T14:06:38;5.20;;;1.75;;
41323;SDS011;27073;51.128;4.220;2023-02-28T14:11:41;3.85;;;2.00;;
41323;SDS011;27073;51.128;4.220;2023-02-28T14:14:09;2.90;;;2.03;;
41323;SDS011;27073;51.128;4.220;2023-02-28T14:17:01;3.67;;;2.15;;
41323;SDS011;27073;51.128;4.220;2023-02-28T14:19:29;3.58;;;2.40;;
41323;SDS011;27073;51.128;4.220;2023-02-28T14:36:13;4.53;;;3.70;;
41323;SDS011;27073;51.128;4.220;2023-02-28T14:39:00;4.10;;;2.70;;
41323;SDS011;27073;51.128;4.220;2023-02-28T14:41:32;4.57;;;1.95;;
41323;SDS011;27073;51.128;4.220;2023-02-28T14:44:14;5.10;;;2.47;;
41323;SDS011;27073;51.128;4.220;2023-02-28T14:46:45;4.38;;;2.05;;
41323;SDS011;27073;51.128;4.220;2023-02-28T14:49:46;5.07;;;2.25;;
41323;SDS011;27073;51.128;4.220;2023-02-28T14:52:23;4.40;;;2.13;;
41323;SDS011;27073;51.128;4.220;2023-02-28T14:54:53;8.18;;;1.90;;
41323;SDS011;27073;51.128;4.220;2023-02-28T15:02:40;6.97;;;4.70;;
41323;SDS011;27073;51.128;4.220;2023-02-28T15:07:35;7.10;;;5.40;;
41323;SDS011;27073;51.128;4.220;2023-02-28T15:10:33;6.32;;;4.38;;
41323;SDS011;27073;51.128;4.220;2023-02-28T15:15:41;8.68;;;5.70;;
41323;SDS011;27073;51.128;4.220;2023-02-28T15:18:10;3.88;;;3.00;;
41323;SDS011;27073;51.128;4.220;2023-02-28T15:20:47;5.43;;;3.40;;
41323;SDS011;27073;51.128;4.220;2023-02-28T15:23:15;5.80;;;3.40;;
41323;SDS011;27073;51.128;4.220;2023-02-28T15:25:42;7.10;;;4.25;;
41323;SDS011;27073;51.128;4.220;2023-02-28T15:28:10;5.32;;;4.82;;
41323;SDS011;27073;51.128;4.220;2023-02-28T15:30:49;5.45;;;3.97;;
41323;SDS011;27073;51.128;4.220;2023-02-28T15:35:41;5.00;;;2.95;;
41323;SDS011;27073;51.128;4.220;2023-02-28T15:38:15;4.63;;;2.58;;
41323;SDS011;27073;51.128;4.220;2023-02-28T15:40:56;5.78;;;2.55;;
41323;SDS011;27073;51.128;4.220;2023-02-28T15:46:00;4.40;;;3.13;;
41323;SDS011;27073;51.128;4.220;2023-02-28T15:48:29;3.30;;;2.42;;
41323;SDS011;27073;51.128;4.220;2023-02-28T15:53:33;3.70;;;2.70;;
41323;SDS011;27073;51.128;4.220;2023-02-28T15:58:58;7.22;;;3.90;;
41323;SDS011;27073;51.128;4.220;2023-02-28T16:01:33;9.38;;;5.10;;
41323;SDS011;27073;51.128;4.220;2023-02-28T16:04:05;6.30;;;4.10;;
41323;SDS011;27073;51.128;4.220;2023-02-28T16:09:38;6.20;;;2.88;;
41323;SDS011;27073;51.128;4.220;2023-02-28T16:12:04;6.47;;;3.10;;
41323;SDS011;27073;51.128;4.220;2023-02-28T16:14:30;4.20;;;2.65;;
41323;SDS011;27073;51.128;4.220;2023-02-28T16:16:57;8.35;;;4.60;;
41323;SDS011;27073;51.128;4.220;2023-02-28T16:19:34;8.85;;;3.65;;
41323;SDS011;27073;51.128;4.220;2023-02-28T16:21:59;4.93;;;3.15;;
41323;SDS011;27073;51.128;4.220;2023-02-28T16:24:26;5.22;;;2.92;;
41323;SDS011;27073;51.128;4.220;2023-02-28T16:26:52;6.25;;;3.20;;
41323;SDS011;27073;51.128;4.220;2023-02-28T16:29:26;5.90;;;3.80;;
41323;SDS011;27073;51.128;4.220;2023-02-28T16:31:58;5.97;;;4.35;;
41323;SDS011;27073;51.128;4.220;2023-02-28T16:34:25;5.38;;;3.65;;
41323;SDS011;27073;51.128;4.220;2023-02-28T16:36:51;5.93;;;4.05;;
41323;SDS011;27073;51.128;4.220;2023-02-28T16:39:19;6.70;;;5.18;;
41323;SDS011;27073;51.128;4.220;2023-02-28T16:41:48;5.78;;;5.10;;
41323;SDS011;27073;51.128;4.220;2023-02-28T16:44:26;5.03;;;3.47;;
41323;SDS011;27073;51.128;4.220;2023-02-28T16:46:54;5.85;;;3.70;;
41323;SDS011;27073;51.128;4.220;2023-02-28T16:49:20;5.38;;;3.13;;
41323;SDS011;27073;51.128;4.220;2023-02-28T16:51:47;5.85;;;4.38;;
41323;SDS011;27073;51.128;4.220;2023-02-28T16:54:13;7.60;;;3.63;;
41323;SDS011;27073;51.128;4.220;2023-02-28T16:56:40;8.27;;;5.63;;
41323;SDS011;27073;51.128;4.220;2023-02-28T16:59:09;16.77;;;13.35;;
41323;SDS011;27073;51.128;4.220;2023-02-28T17:01:36;8.65;;;6.70;;
41323;SDS011;27073;51.128;4.220;2023-02-28T17:04:02;8.82;;;5.32;;
41323;SDS011;27073;51.128;4.220;2023-02-28T17:06:28;11.05;;;6.13;;
41323;SDS011;27073;51.128;4.220;2023-02-28T17:08:55;12.13;;;8.05;;
41323;SDS011;27073;51.128;4.220;2023-02-28T17:11:23;7.95;;;4.72;;
41323;SDS011;27073;51.128;4.220;2023-02-28T17:13:49;16.67;;;12.20;;
41323;SDS011;27073;51.128;4.220;2023-02-28T17:16:17;11.98;;;8.68;;
41323;SDS011;27073;51.128;4.220;2023-02-28T17:18:57;9.98;;;6.65;;
41323;SDS011;27073;51.128;4.220;2023-02-28T17:21:24;13.43;;;8.75;;
41323;SDS011;27073;51.128;4.220;2023-02-28T17:23:50;6.82;;;5.28;;
41323;SDS011;27073;51.128;4.220;2023-02-28T17:26:16;15.05;;;9.50;;
41323;SDS011;27073;51.128;4.220;2023-02-28T17:28:47;89.82;;;46.15;;
41323;SDS011;27073;51.128;4.220;2023-02-28T17:31:14;104.50;;;53.17;;
41323;SDS011;27073;51.128;4.220;2023-02-28T17:33:40;163.07;;;85.13;;
41323;SDS011;27073;51.128;4.220;2023-02-28T17:36:08;158.45;;;84.10;;
41323;SDS011;27073;51.128;4.220;2023-02-28T17:38:43;188.45;;;94.47;;
41323;SDS011;27073;51.128;4.220;2023-02-28T17:41:11;148.35;;;68.95;;
41323;SDS011;27073;51.128;4.220;2023-02-28T17:43:37;150.27;;;66.88;;
41323;SDS011;27073;51.128;4.220;2023-02-28T17:46:03;152.38;;;71.03;;
41323;SDS011;27073;51.128;4.220;2023-02-28T17:48:33;47.33;;;25.40;;
41323;SDS011;27073;51.128;4.220;2023-02-28T17:51:00;22.73;;;14.50;;
41323;SDS011;27073;51.128;4.220;2023-02-28T17:53:26;16.83;;;9.20;;
41323;SDS011;27073;51.128;4.220;2023-02-28T17:55:52;10.00;;;7.05;;
41323;SDS011;27073;51.128;4.220;2023-02-28T17:58:18;11.25;;;6.68;;
41323;SDS011;27073;51.128;4.220;2023-02-28T18:00:44;13.25;;;6.00;;
41323;SDS011;27073;51.128;4.220;2023-02-28T18:03:10;7.78;;;5.00;;
41323;SDS011;27073;51.128;4.220;2023-02-28T18:05:38;5.45;;;4.05;;